sensor_id;sensor_type;location;lat;lon;timestamp;temperature;humidity
18773;DHT22;9515;50.810;4.418;2023-03-01T00:01:25;4.20;99.90
18773;DHT22;9515;50.810;4.418;2023-03-01T00:03:51;4.10;99.90
18773;DHT22;9515;50.810;4.418;2023-03-01T00:06:18;4.10;99.90
18773;DHT22;9515;50.810;4.418;2023-03-01T00:08:44;3.90;99.90
18773;DHT22;9515;50.810;4.418;2023-03-01T00:11:21;4.00;99.90
18773;DHT22;9515;50.810;4.418;2023-03-01T00:13:50;3.80;99.90
18773;DHT22;9515;50.810;4.418;2023-03-01T00:16:29;3.90;99.90
18773;DHT22;9515;50.810;4.418;2023-03-01T00:18:56;4.10;99.90
18773;DHT22;9515;50.810;4.418;2023-03-01T00:21:22;4.00;99.90
18773;DHT22;9515;50.810;4.418;2023-03-01T00:23:49;3.90;99.90
18773;DHT22;9515;50.810;4.418;2023-03-01T00:26:16;3.90;99.90
18773;DHT22;9515;50.810;4.418;2023-03-01T00:28:42;3.80;99.90
18773;DHT22;9515;50.810;4.418;2023-03-01T00:31:18;3.80;99.90
18773;DHT22;9515;50.810;4.418;2023-03-01T00:33:45;3.70;99.90
18773;DHT22;9515;50.810;4.418;2023-03-01T00:36:13;3.60;99.90
18773;DHT22;9515;50.810;4.418;2023-03-01T00:38:43;3.60;99.90
18773;DHT22;9515;50.810;4.418;2023-03-01T00:41:12;3.60;99.90
18773;DHT22;9515;50.810;4.418;2023-03-01T00:43:38;3.60;99.90
18773;DHT22;9515;50.810;4.418;2023-03-01T00:46:06;3.70;99.90
18773;DHT22;9515;50.810;4.418;2023-03-01T00:48:33;3.70;99.90
18773;DHT22;9515;50.810;4.418;2023-03-01T00:51:11;3.70;99.90
18773;DHT22;9515;50.810;4.418;2023-03-01T00:53:37;3.80;99.90
18773;DHT22;9515;50.810;4.418;2023-03-01T00:56:04;3.70;99.90
18773;DHT22;9515;50.810;4.418;2023-03-01T00:58:30;3.80;99.90
18773;DHT22;9515;50.810;4.418;2023-03-01T01:00:56;3.90;99.90
18773;DHT22;9515;50.810;4.418;2023-03-01T01:03:21;3.90;99.90
18773;DHT22;9515;50.810;4.418;2023-03-01T01:05:48;3.80;99.90
18773;DHT22;9515;50.810;4.418;2023-03-01T01:08:14;3.70;99.90
18773;DHT22;9515;50.810;4.418;2023-03-01T01:10:39;3.80;99.90
18773;DHT22;9515;50.810;4.418;2023-03-01T01:13:05;3.70;99.90
18773;DHT22;9515;50.810;4.418;2023-03-01T01:15:34;3.80;99.90
18773;DHT22;9515;50.810;4.418;2023-03-01T01:18:00;3.70;99.90
18773;DHT22;9515;50.810;4.418;2023-03-01T01:20:26;3.70;99.90
18773;DHT22;9515;50.810;4.418;2023-03-01T01:22:52;3.70;99.90
18773;DHT22;9515;50.810;4.418;2023-03-01T01:25:18;3.60;99.90
18773;DHT22;9515;50.810;4.418;2023-03-01T01:27:43;3.50;99.90
18773;DHT22;9515;50.810;4.418;2023-03-01T01:30:09;3.50;99.90
18773;DHT22;9515;50.810;4.418;2023-03-01T01:32:35;3.50;99.90
18773;DHT22;9515;50.810;4.418;2023-03-01T01:35:01;3.40;99.90
18773;DHT22;9515;50.810;4.418;2023-03-01T01:37:26;3.50;99.90
18773;DHT22;9515;50.810;4.418;2023-03-01T01:39:57;3.50;99.90
18773;DHT22;9515;50.810;4.418;2023-03-01T01:42:23;3.40;99.90
18773;DHT22;9515;50.810;4.418;2023-03-01T01:45:42;3.20;99.90
18773;DHT22;9515;50.810;4.418;2023-03-01T01:48:04;3.30;99.90
18773;DHT22;9515;50.810;4.418;2023-03-01T01:50:33;3.40;99.90
18773;DHT22;9515;50.810;4.418;2023-03-01T01:53:09;3.50;99.90
18773;DHT22;9515;50.810;4.418;2023-03-01T01:55:37;3.20;99.90
18773;DHT22;9515;50.810;4.418;2023-03-01T01:58:07;3.20;99.90
18773;DHT22;9515;50.810;4.418;2023-03-01T02:00:33;3.20;99.90
18773;DHT22;9515;50.810;4.418;2023-03-01T02:03:09;3.20;99.90
18773;DHT22;9515;50.810;4.418;2023-03-01T02:08:20;3.40;99.90
18773;DHT22;9515;50.810;4.418;2023-03-01T02:10:48;3.20;99.90
18773;DHT22;9515;50.810;4.418;2023-03-01T02:13:14;3.10;99.90
18773;DHT22;9515;50.810;4.418;2023-03-01T02:15:40;3.10;99.90
18773;DHT22;9515;50.810;4.418;2023-03-01T02:18:07;3.20;99.90
18773;DHT22;9515;50.810;4.418;2023-03-01T02:23:30;3.10;99.90
18773;DHT22;9515;50.810;4.418;2023-03-01T02:28:43;3.20;99.90
18773;DHT22;9515;50.810;4.418;2023-03-01T02:31:10;3.20;99.90
18773;DHT22;9515;50.810;4.418;2023-03-01T02:33:56;3.20;99.90
18773;DHT22;9515;50.810;4.418;2023-03-01T02:36:25;3.20;99.90
18773;DHT22;9515;50.810;4.418;2023-03-01T02:38:55;3.10;99.90
18773;DHT22;9515;50.810;4.418;2023-03-01T02:41:21;3.10;99.90
18773;DHT22;9515;50.810;4.418;2023-03-01T02:43:48;3.20;99.90
18773;DHT22;9515;50.810;4.418;2023-03-01T02:48:50;3.30;99.90
18773;DHT22;9515;50.810;4.418;2023-03-01T02:51:42;3.30;99.90
18773;DHT22;9515;50.810;4.418;2023-03-01T02:56:55;3.20;99.90
18773;DHT22;9515;50.810;4.418;2023-03-01T02:59:26;3.10;99.90
18773;DHT22;9515;50.810;4.418;2023-03-01T03:01:52;3.10;99.90
18773;DHT22;9515;50.810;4.418;2023-03-01T03:04:19;3.10;99.90
18773;DHT22;9515;50.810;4.418;2023-03-01T03:06:49;3.00;99.90
18773;DHT22;9515;50.810;4.418;2023-03-01T03:09:16;2.90;99.90
18773;DHT22;9515;50.810;4.418;2023-03-01T03:11:42;3.00;99.90
18773;DHT22;9515;50.810;4.418;2023-03-01T03:14:12;3.00;99.90
18773;DHT22;9515;50.810;4.418;2023-03-01T03:16:49;2.90;99.90
18773;DHT22;9515;50.810;4.418;2023-03-01T03:19:16;2.90;99.90
18773;DHT22;9515;50.810;4.418;2023-03-01T03:21:42;2.90;99.90
18773;DHT22;9515;50.810;4.418;2023-03-01T03:24:08;2.90;99.90
18773;DHT22;9515;50.810;4.418;2023-03-01T03:26:34;3.00;99.90
18773;DHT22;9515;50.810;4.418;2023-03-01T03:28:59;2.90;99.90
18773;DHT22;9515;50.810;4.418;2023-03-01T03:31:25;2.90;99.90
18773;DHT22;9515;50.810;4.418;2023-03-01T03:33:51;2.90;99.90
18773;DHT22;9515;50.810;4.418;2023-03-01T03:36:22;2.90;99.90
18773;DHT22;9515;50.810;4.418;2023-03-01T03:38:48;2.50;99.90
18773;DHT22;9515;50.810;4.418;2023-03-01T03:41:15;2.60;99.90
18773;DHT22;9515;50.810;4.418;2023-03-01T03:43:41;2.60;99.90
18773;DHT22;9515;50.810;4.418;2023-03-01T03:46:09;2.70;99.90
18773;DHT22;9515;50.810;4.418;2023-03-01T03:48:38;2.80;99.90
18773;DHT22;9515;50.810;4.418;2023-03-01T03:51:04;2.80;99.90
18773;DHT22;9515;50.810;4.418;2023-03-01T03:53:33;2.70;99.90
18773;DHT22;9515;50.810;4.418;2023-03-01T03:55:59;2.70;99.90
18773;DHT22;9515;50.810;4.418;2023-03-01T03:58:25;2.80;99.90
18773;DHT22;9515;50.810;4.418;2023-03-01T04:00:53;2.80;99.90
18773;DHT22;9515;50.810;4.418;2023-03-01T04:03:21;3.00;99.90
18773;DHT22;9515;50.810;4.418;2023-03-01T04:05:47;2.60;99.90
18773;DHT22;9515;50.810;4.418;2023-03-01T04:08:15;2.80;99.90
18773;DHT22;9515;50.810;4.418;2023-03-01T04:10:43;2.70;99.90
18773;DHT22;9515;50.810;4.418;2023-03-01T04:13:15;2.80;99.90
18773;DHT22;9515;50.810;4.418;2023-03-01T04:15:41;2.60;99.90
18773;DHT22;9515;50.810;4.418;2023-03-01T04:18:14;2.80;99.90
18773;DHT22;9515;50.810;4.418;2023-03-01T04:20:40;2.50;99.90
18773;DHT22;9515;50.810;4.418;2023-03-01T04:23:08;2.60;99.90
18773;DHT22;9515;50.810;4.418;2023-03-01T04:25:57;2.70;99.90
18773;DHT22;9515;50.810;4.418;2023-03-01T04:28:28;2.50;99.90
18773;DHT22;9515;50.810;4.418;2023-03-01T04:30:55;2.40;99.90
18773;DHT22;9515;50.810;4.418;2023-03-01T04:33:21;2.50;99.90
18773;DHT22;9515;50.810;4.418;2023-03-01T04:35:47;2.50;99.90
18773;DHT22;9515;50.810;4.418;2023-03-01T04:38:15;2.50;99.90
18773;DHT22;9515;50.810;4.418;2023-03-01T04:40:41;2.50;99.90
18773;DHT22;9515;50.810;4.418;2023-03-01T04:43:09;2.50;99.90
18773;DHT22;9515;50.810;4.418;2023-03-01T04:45:35;2.40;99.90
18773;DHT22;9515;50.810;4.418;2023-03-01T04:48:02;2.60;99.90
18773;DHT22;9515;50.810;4.418;2023-03-01T04:50:28;2.80;99.90
18773;DHT22;9515;50.810;4.418;2023-03-01T04:52:54;2.70;99.90
18773;DHT22;9515;50.810;4.418;2023-03-01T04:55:25;2.80;99.90
18773;DHT22;9515;50.810;4.418;2023-03-01T04:57:51;2.80;99.90
18773;DHT22;9515;50.810;4.418;2023-03-01T05:00:17;2.90;99.90
18773;DHT22;9515;50.810;4.418;2023-03-01T05:02:51;2.90;99.90
18773;DHT22;9515;50.810;4.418;2023-03-01T05:05:30;2.70;99.90
18773;DHT22;9515;50.810;4.418;2023-03-01T05:07:57;2.70;99.90
18773;DHT22;9515;50.810;4.418;2023-03-01T05:10:24;2.80;99.90
18773;DHT22;9515;50.810;4.418;2023-03-01T05:12:50;2.80;99.90
18773;DHT22;9515;50.810;4.418;2023-03-01T05:15:18;2.70;99.90
18773;DHT22;9515;50.810;4.418;2023-03-01T05:17:43;2.80;99.90
18773;DHT22;9515;50.810;4.418;2023-03-01T05:20:10;2.70;99.90
18773;DHT22;9515;50.810;4.418;2023-03-01T05:22:36;2.70;99.90
18773;DHT22;9515;50.810;4.418;2023-03-01T05:25:02;2.70;99.90
18773;DHT22;9515;50.810;4.418;2023-03-01T05:27:29;2.70;99.90
18773;DHT22;9515;50.810;4.418;2023-03-01T05:29:55;2.70;99.90
18773;DHT22;9515;50.810;4.418;2023-03-01T05:32:21;2.50;99.90
18773;DHT22;9515;50.810;4.418;2023-03-01T05:34:46;2.70;99.90
18773;DHT22;9515;50.810;4.418;2023-03-01T05:37:12;2.60;99.90
18773;DHT22;9515;50.810;4.418;2023-03-01T05:39:39;2.60;99.90
18773;DHT22;9515;50.810;4.418;2023-03-01T05:42:05;2.60;99.90
18773;DHT22;9515;50.810;4.418;2023-03-01T05:44:31;2.60;99.90
18773;DHT22;9515;50.810;4.418;2023-03-01T05:46:57;2.40;99.90
18773;DHT22;9515;50.810;4.418;2023-03-01T05:49:23;2.40;99.90
18773;DHT22;9515;50.810;4.418;2023-03-01T05:51:53;2.60;99.90
18773;DHT22;9515;50.810;4.418;2023-03-01T05:54:20;2.50;99.90
18773;DHT22;9515;50.810;4.418;2023-03-01T05:56:46;2.50;99.90
18773;DHT22;9515;50.810;4.418;2023-03-01T05:59:12;2.50;99.90
18773;DHT22;9515;50.810;4.418;2023-03-01T06:01:39;2.60;99.90
18773;DHT22;9515;50.810;4.418;2023-03-01T06:04:05;2.60;99.90
18773;DHT22;9515;50.810;4.418;2023-03-01T06:06:35;2.50;99.90
18773;DHT22;9515;50.810;4.418;2023-03-01T06:09:06;2.50;99.90
18773;DHT22;9515;50.810;4.418;2023-03-01T06:11:34;2.60;99.90
18773;DHT22;9515;50.810;4.418;2023-03-01T06:14:00;2.50;99.90
18773;DHT22;9515;50.810;4.418;2023-03-01T06:16:25;2.40;99.90
18773;DHT22;9515;50.810;4.418;2023-03-01T06:18:51;2.50;99.90
18773;DHT22;9515;50.810;4.418;2023-03-01T06:21:16;2.50;99.90
18773;DHT22;9515;50.810;4.418;2023-03-01T06:23:42;2.40;99.90
18773;DHT22;9515;50.810;4.418;2023-03-01T06:26:08;2.40;99.90
18773;DHT22;9515;50.810;4.418;2023-03-01T06:28:35;2.40;99.90
18773;DHT22;9515;50.810;4.418;2023-03-01T06:31:01;2.40;99.90
18773;DHT22;9515;50.810;4.418;2023-03-01T06:33:27;2.40;99.90
18773;DHT22;9515;50.810;4.418;2023-03-01T06:35:56;2.40;99.90
18773;DHT22;9515;50.810;4.418;2023-03-01T06:38:23;2.50;99.90
18773;DHT22;9515;50.810;4.418;2023-03-01T06:40:56;2.30;99.90
18773;DHT22;9515;50.810;4.418;2023-03-01T06:43:22;2.40;99.90
18773;DHT22;9515;50.810;4.418;2023-03-01T06:45:49;2.20;99.90
18773;DHT22;9515;50.810;4.418;2023-03-01T06:48:14;2.30;99.90
18773;DHT22;9515;50.810;4.418;2023-03-01T06:50:40;2.50;99.90
18773;DHT22;9515;50.810;4.418;2023-03-01T06:53:06;2.50;99.90
18773;DHT22;9515;50.810;4.418;2023-03-01T06:55:31;2.70;99.90
18773;DHT22;9515;50.810;4.418;2023-03-01T06:58:01;2.60;99.90
18773;DHT22;9515;50.810;4.418;2023-03-01T07:00:28;2.80;99.90
18773;DHT22;9515;50.810;4.418;2023-03-01T07:02:54;2.90;99.90
18773;DHT22;9515;50.810;4.418;2023-03-01T07:05:20;3.00;99.90
18773;DHT22;9515;50.810;4.418;2023-03-01T07:07:46;3.10;99.90
18773;DHT22;9515;50.810;4.418;2023-03-01T07:10:12;3.20;99.90
18773;DHT22;9515;50.810;4.418;2023-03-01T07:12:38;3.40;99.90
18773;DHT22;9515;50.810;4.418;2023-03-01T07:15:05;3.90;99.90
18773;DHT22;9515;50.810;4.418;2023-03-01T07:17:31;4.30;99.90
18773;DHT22;9515;50.810;4.418;2023-03-01T07:19:57;4.90;99.90
18773;DHT22;9515;50.810;4.418;2023-03-01T07:22:22;5.10;99.90
18773;DHT22;9515;50.810;4.418;2023-03-01T07:24:48;5.50;99.90
18773;DHT22;9515;50.810;4.418;2023-03-01T07:27:14;5.90;99.90
18773;DHT22;9515;50.810;4.418;2023-03-01T07:29:39;6.20;99.90
18773;DHT22;9515;50.810;4.418;2023-03-01T07:32:05;6.20;99.90
18773;DHT22;9515;50.810;4.418;2023-03-01T07:34:31;6.40;99.90
18773;DHT22;9515;50.810;4.418;2023-03-01T07:36:56;6.80;99.90
18773;DHT22;9515;50.810;4.418;2023-03-01T07:39:22;7.10;99.90
18773;DHT22;9515;50.810;4.418;2023-03-01T07:41:51;7.50;99.90
18773;DHT22;9515;50.810;4.418;2023-03-01T07:44:17;7.90;99.90
18773;DHT22;9515;50.810;4.418;2023-03-01T07:46:43;8.10;99.90
18773;DHT22;9515;50.810;4.418;2023-03-01T07:49:10;8.50;99.90
18773;DHT22;9515;50.810;4.418;2023-03-01T07:51:36;8.70;99.90
18773;DHT22;9515;50.810;4.418;2023-03-01T07:54:01;8.90;99.90
18773;DHT22;9515;50.810;4.418;2023-03-01T07:56:27;8.80;99.90
18773;DHT22;9515;50.810;4.418;2023-03-01T07:58:53;9.10;99.90
18773;DHT22;9515;50.810;4.418;2023-03-01T08:01:20;9.30;99.90
18773;DHT22;9515;50.810;4.418;2023-03-01T08:03:46;9.40;99.90
18773;DHT22;9515;50.810;4.418;2023-03-01T08:06:14;9.20;99.90
18773;DHT22;9515;50.810;4.418;2023-03-01T08:08:41;9.50;99.90
18773;DHT22;9515;50.810;4.418;2023-03-01T08:11:09;9.80;99.90
18773;DHT22;9515;50.810;4.418;2023-03-01T08:13:35;10.00;99.90
18773;DHT22;9515;50.810;4.418;2023-03-01T08:16:09;10.20;99.90
18773;DHT22;9515;50.810;4.418;2023-03-01T08:18:35;10.10;99.90
18773;DHT22;9515;50.810;4.418;2023-03-01T08:21:12;10.00;99.90
18773;DHT22;9515;50.810;4.418;2023-03-01T08:23:39;10.00;99.90
18773;DHT22;9515;50.810;4.418;2023-03-01T08:28:31;10.20;99.90
18773;DHT22;9515;50.810;4.418;2023-03-01T08:30:57;10.70;99.90
18773;DHT22;9515;50.810;4.418;2023-03-01T08:33:22;10.90;99.90
18773;DHT22;9515;50.810;4.418;2023-03-01T08:35:48;10.70;99.90
18773;DHT22;9515;50.810;4.418;2023-03-01T08:38:13;10.70;99.90
18773;DHT22;9515;50.810;4.418;2023-03-01T08:40:39;10.80;99.90
18773;DHT22;9515;50.810;4.418;2023-03-01T08:43:05;10.90;99.90
18773;DHT22;9515;50.810;4.418;2023-03-01T08:45:30;11.00;99.90
18773;DHT22;9515;50.810;4.418;2023-03-01T08:47:56;11.20;99.90
18773;DHT22;9515;50.810;4.418;2023-03-01T08:50:21;11.50;99.90
18773;DHT22;9515;50.810;4.418;2023-03-01T08:52:49;11.50;99.90
18773;DHT22;9515;50.810;4.418;2023-03-01T08:55:15;11.70;99.90
18773;DHT22;9515;50.810;4.418;2023-03-01T08:57:42;12.20;99.90
18773;DHT22;9515;50.810;4.418;2023-03-01T09:00:09;12.50;99.90
18773;DHT22;9515;50.810;4.418;2023-03-01T09:02:36;12.50;99.90
18773;DHT22;9515;50.810;4.418;2023-03-01T09:05:02;12.70;99.90
18773;DHT22;9515;50.810;4.418;2023-03-01T09:07:28;12.60;99.90
18773;DHT22;9515;50.810;4.418;2023-03-01T09:09:54;12.80;99.90
18773;DHT22;9515;50.810;4.418;2023-03-01T09:12:20;12.70;99.90
18773;DHT22;9515;50.810;4.418;2023-03-01T09:14:46;12.80;99.90
18773;DHT22;9515;50.810;4.418;2023-03-01T09:17:11;12.70;99.90
18773;DHT22;9515;50.810;4.418;2023-03-01T09:19:37;12.50;99.90
18773;DHT22;9515;50.810;4.418;2023-03-01T09:22:04;12.30;99.90
18773;DHT22;9515;50.810;4.418;2023-03-01T09:24:30;12.10;99.90
18773;DHT22;9515;50.810;4.418;2023-03-01T09:26:56;12.20;99.90
18773;DHT22;9515;50.810;4.418;2023-03-01T09:29:22;12.50;99.90
18773;DHT22;9515;50.810;4.418;2023-03-01T09:31:48;12.60;99.90
18773;DHT22;9515;50.810;4.418;2023-03-01T09:34:15;12.30;99.90
18773;DHT22;9515;50.810;4.418;2023-03-01T09:36:44;12.30;99.90
18773;DHT22;9515;50.810;4.418;2023-03-01T09:39:10;13.00;99.90
18773;DHT22;9515;50.810;4.418;2023-03-01T09:46:46;13.90;99.90
18773;DHT22;9515;50.810;4.418;2023-03-01T09:49:21;14.20;99.90
18773;DHT22;9515;50.810;4.418;2023-03-01T09:51:55;14.60;99.90
18773;DHT22;9515;50.810;4.418;2023-03-01T09:54:21;15.20;99.90
18773;DHT22;9515;50.810;4.418;2023-03-01T09:57:05;15.70;99.90
18773;DHT22;9515;50.810;4.418;2023-03-01T09:59:41;16.40;99.90
18773;DHT22;9515;50.810;4.418;2023-03-01T10:05:35;15.90;99.90
18773;DHT22;9515;50.810;4.418;2023-03-01T10:10:51;15.90;99.90
18773;DHT22;9515;50.810;4.418;2023-03-01T10:13:24;16.00;99.90
18773;DHT22;9515;50.810;4.418;2023-03-01T10:15:59;16.00;99.90
18773;DHT22;9515;50.810;4.418;2023-03-01T10:18:29;15.50;99.90
18773;DHT22;9515;50.810;4.418;2023-03-01T10:21:00;15.10;99.90
18773;DHT22;9515;50.810;4.418;2023-03-01T10:23:28;15.30;99.90
18773;DHT22;9515;50.810;4.418;2023-03-01T10:29:10;15.80;99.90
18773;DHT22;9515;50.810;4.418;2023-03-01T10:34:11;16.40;99.90
18773;DHT22;9515;50.810;4.418;2023-03-01T10:36:38;16.30;99.90
18773;DHT22;9515;50.810;4.418;2023-03-01T10:39:18;16.30;99.90
18773;DHT22;9515;50.810;4.418;2023-03-01T10:42:18;16.20;99.90
18773;DHT22;9515;50.810;4.418;2023-03-01T10:44:46;15.70;99.90
18773;DHT22;9515;50.810;4.418;2023-03-01T10:47:32;16.00;99.90
18773;DHT22;9515;50.810;4.418;2023-03-01T10:50:01;16.70;99.90
18773;DHT22;9515;50.810;4.418;2023-03-01T10:52:30;17.00;99.90
18773;DHT22;9515;50.810;4.418;2023-03-01T10:55:17;17.60;99.90
18773;DHT22;9515;50.810;4.418;2023-03-01T10:57:45;17.80;99.90
18773;DHT22;9515;50.810;4.418;2023-03-01T11:00:19;18.10;98.80
18773;DHT22;9515;50.810;4.418;2023-03-01T11:03:11;18.70;98.40
18773;DHT22;9515;50.810;4.418;2023-03-01T11:05:54;18.30;98.10
18773;DHT22;9515;50.810;4.418;2023-03-01T11:11:32;19.20;98.30
18773;DHT22;9515;50.810;4.418;2023-03-01T11:16:48;19.50;96.60
18773;DHT22;9515;50.810;4.418;2023-03-01T11:19:16;19.50;96.60
18773;DHT22;9515;50.810;4.418;2023-03-01T11:24:17;20.20;95.70
18773;DHT22;9515;50.810;4.418;2023-03-01T11:26:50;20.90;95.70
18773;DHT22;9515;50.810;4.418;2023-03-01T11:29:38;20.20;94.90
18773;DHT22;9515;50.810;4.418;2023-03-01T11:32:08;20.20;95.70
18773;DHT22;9515;50.810;4.418;2023-03-01T11:37:42;20.90;94.50
18773;DHT22;9515;50.810;4.418;2023-03-01T11:40:24;20.80;93.60
18773;DHT22;9515;50.810;4.418;2023-03-01T11:50:50;21.10;92.90
18773;DHT22;9515;50.810;4.418;2023-03-01T11:53:28;21.30;93.40
18773;DHT22;9515;50.810;4.418;2023-03-01T11:56:09;21.40;92.80
18773;DHT22;9515;50.810;4.418;2023-03-01T12:01:32;22.30;92.00
18773;DHT22;9515;50.810;4.418;2023-03-01T12:04:24;22.80;91.80
18773;DHT22;9515;50.810;4.418;2023-03-01T12:17:12;21.70;91.30
18773;DHT22;9515;50.810;4.418;2023-03-01T12:19:55;21.50;90.70
18773;DHT22;9515;50.810;4.418;2023-03-01T12:22:32;20.80;91.60
18773;DHT22;9515;50.810;4.418;2023-03-01T12:28:21;20.90;91.80
18773;DHT22;9515;50.810;4.418;2023-03-01T12:31:00;21.60;90.60
18773;DHT22;9515;50.810;4.418;2023-03-01T12:33:49;22.40;89.80
18773;DHT22;9515;50.810;4.418;2023-03-01T12:44:58;23.40;86.50
18773;DHT22;9515;50.810;4.418;2023-03-01T12:47:46;23.60;86.50
18773;DHT22;9515;50.810;4.418;2023-03-01T12:50:21;23.20;86.70
18773;DHT22;9515;50.810;4.418;2023-03-01T12:52:51;22.30;85.90
18773;DHT22;9515;50.810;4.418;2023-03-01T12:58:11;22.20;89.10
18773;DHT22;9515;50.810;4.418;2023-03-01T13:00:51;23.10;86.60
18773;DHT22;9515;50.810;4.418;2023-03-01T13:03:25;22.70;85.70
18773;DHT22;9515;50.810;4.418;2023-03-01T13:06:03;23.60;85.20
18773;DHT22;9515;50.810;4.418;2023-03-01T13:11:20;22.90;85.90
18773;DHT22;9515;50.810;4.418;2023-03-01T13:13:46;23.80;87.40
18773;DHT22;9515;50.810;4.418;2023-03-01T13:16:40;24.60;83.60
18773;DHT22;9515;50.810;4.418;2023-03-01T13:19:19;25.10;82.50
18773;DHT22;9515;50.810;4.418;2023-03-01T13:21:46;25.10;82.60
18773;DHT22;9515;50.810;4.418;2023-03-01T13:24:40;25.30;82.30
18773;DHT22;9515;50.810;4.418;2023-03-01T13:37:45;25.90;79.30
18773;DHT22;9515;50.810;4.418;2023-03-01T13:42:47;25.40;79.00
18773;DHT22;9515;50.810;4.418;2023-03-01T13:45:32;25.80;79.80
18773;DHT22;9515;50.810;4.418;2023-03-01T13:48:24;25.80;79.20
18773;DHT22;9515;50.810;4.418;2023-03-01T13:50:53;25.70;79.10
18773;DHT22;9515;50.810;4.418;2023-03-01T13:53:23;25.30;79.10
18773;DHT22;9515;50.810;4.418;2023-03-01T13:55:56;24.70;79.10
18773;DHT22;9515;50.810;4.418;2023-03-01T13:58:25;24.60;78.50
18773;DHT22;9515;50.810;4.418;2023-03-01T14:01:03;24.40;78.00
18773;DHT22;9515;50.810;4.418;2023-03-01T14:03:31;24.00;78.50
18773;DHT22;9515;50.810;4.418;2023-03-01T14:06:07;24.00;79.60
18773;DHT22;9515;50.810;4.418;2023-03-01T14:08:35;23.60;79.50
18773;DHT22;9515;50.810;4.418;2023-03-01T14:17:03;23.70;78.80
18773;DHT22;9515;50.810;4.418;2023-03-01T14:19:31;23.60;79.50
18773;DHT22;9515;50.810;4.418;2023-03-01T14:22:22;23.40;79.10
18773;DHT22;9515;50.810;4.418;2023-03-01T14:24:51;23.30;79.20
18773;DHT22;9515;50.810;4.418;2023-03-01T14:27:18;22.50;79.90
18773;DHT22;9515;50.810;4.418;2023-03-01T14:29:54;22.20;80.40
18773;DHT22;9515;50.810;4.418;2023-03-01T14:32:24;22.10;80.80
18773;DHT22;9515;50.810;4.418;2023-03-01T14:34:50;22.60;80.40
18773;DHT22;9515;50.810;4.418;2023-03-01T14:37:29;22.40;80.40
18773;DHT22;9515;50.810;4.418;2023-03-01T14:39:57;22.40;80.60
18773;DHT22;9515;50.810;4.418;2023-03-01T14:42:27;22.30;80.90
18773;DHT22;9515;50.810;4.418;2023-03-01T14:44:55;22.30;80.20
18773;DHT22;9515;50.810;4.418;2023-03-01T14:47:33;21.90;81.40
18773;DHT22;9515;50.810;4.418;2023-03-01T14:52:47;22.10;80.70
18773;DHT22;9515;50.810;4.418;2023-03-01T14:55:17;21.90;80.20
18773;DHT22;9515;50.810;4.418;2023-03-01T14:57:47;22.00;80.90
18773;DHT22;9515;50.810;4.418;2023-03-01T15:00:20;22.60;80.80
18773;DHT22;9515;50.810;4.418;2023-03-01T15:02:48;21.90;80.20
18773;DHT22;9515;50.810;4.418;2023-03-01T15:05:15;21.50;80.00
18773;DHT22;9515;50.810;4.418;2023-03-01T15:07:43;20.90;81.10
18773;DHT22;9515;50.810;4.418;2023-03-01T15:10:29;20.70;81.90
18773;DHT22;9515;50.810;4.418;2023-03-01T15:12:55;20.60;82.60
18773;DHT22;9515;50.810;4.418;2023-03-01T15:15:36;20.70;82.50
18773;DHT22;9515;50.810;4.418;2023-03-01T15:18:21;21.30;82.50
18773;DHT22;9515;50.810;4.418;2023-03-01T15:20:49;21.60;81.10
18773;DHT22;9515;50.810;4.418;2023-03-01T15:23:25;21.30;82.30
18773;DHT22;9515;50.810;4.418;2023-03-01T15:25:52;21.70;81.50
18773;DHT22;9515;50.810;4.418;2023-03-01T15:28:34;21.70;81.30
18773;DHT22;9515;50.810;4.418;2023-03-01T15:31:21;20.80;81.20
18773;DHT22;9515;50.810;4.418;2023-03-01T15:33:47;18.40;85.20
18773;DHT22;9515;50.810;4.418;2023-03-01T15:36:41;16.80;87.70
18773;DHT22;9515;50.810;4.418;2023-03-01T15:41:51;13.80;91.80
18773;DHT22;9515;50.810;4.418;2023-03-01T15:44:28;12.90;92.60
18773;DHT22;9515;50.810;4.418;2023-03-01T15:46:54;12.10;93.70
18773;DHT22;9515;50.810;4.418;2023-03-01T15:49:40;12.10;94.20
18773;DHT22;9515;50.810;4.418;2023-03-01T15:52:13;11.80;94.10
18773;DHT22;9515;50.810;4.418;2023-03-01T15:54:40;11.50;94.40
18773;DHT22;9515;50.810;4.418;2023-03-01T15:57:13;11.20;94.40
18773;DHT22;9515;50.810;4.418;2023-03-01T15:59:40;11.00;94.90
18773;DHT22;9515;50.810;4.418;2023-03-01T16:02:11;10.70;95.20
18773;DHT22;9515;50.810;4.418;2023-03-01T16:04:38;10.70;95.90
18773;DHT22;9515;50.810;4.418;2023-03-01T16:07:04;10.30;96.00
18773;DHT22;9515;50.810;4.418;2023-03-01T16:09:30;10.20;96.30
18773;DHT22;9515;50.810;4.418;2023-03-01T16:11:56;10.20;96.50
18773;DHT22;9515;50.810;4.418;2023-03-01T16:14:22;10.00;96.40
18773;DHT22;9515;50.810;4.418;2023-03-01T16:16:48;10.10;96.70
18773;DHT22;9515;50.810;4.418;2023-03-01T16:19:14;10.10;96.80
18773;DHT22;9515;50.810;4.418;2023-03-01T16:21:41;10.10;96.80
18773;DHT22;9515;50.810;4.418;2023-03-01T16:24:08;10.10;96.90
18773;DHT22;9515;50.810;4.418;2023-03-01T16:26:34;10.00;97.20
18773;DHT22;9515;50.810;4.418;2023-03-01T16:29:00;10.10;97.20
18773;DHT22;9515;50.810;4.418;2023-03-01T16:31:26;9.80;97.00
18773;DHT22;9515;50.810;4.418;2023-03-01T16:33:56;9.70;97.30
18773;DHT22;9515;50.810;4.418;2023-03-01T16:36:23;9.70;97.60
18773;DHT22;9515;50.810;4.418;2023-03-01T16:38:50;9.50;97.40
18773;DHT22;9515;50.810;4.418;2023-03-01T16:41:18;9.50;97.70
18773;DHT22;9515;50.810;4.418;2023-03-01T16:43:44;9.50;97.80
18773;DHT22;9515;50.810;4.418;2023-03-01T16:46:13;9.40;97.90
18773;DHT22;9515;50.810;4.418;2023-03-01T16:48:39;9.60;98.20
18773;DHT22;9515;50.810;4.418;2023-03-01T16:51:06;9.50;97.90
18773;DHT22;9515;50.810;4.418;2023-03-01T16:53:33;9.70;98.10
18773;DHT22;9515;50.810;4.418;2023-03-01T16:55:59;9.70;98.20
18773;DHT22;9515;50.810;4.418;2023-03-01T16:58:25;9.50;98.30
18773;DHT22;9515;50.810;4.418;2023-03-01T17:00:52;9.30;98.70
18773;DHT22;9515;50.810;4.418;2023-03-01T17:03:22;9.50;99.10
18773;DHT22;9515;50.810;4.418;2023-03-01T17:05:48;9.70;98.80
18773;DHT22;9515;50.810;4.418;2023-03-01T17:08:14;9.60;98.90
18773;DHT22;9515;50.810;4.418;2023-03-01T17:10:40;9.70;99.00
18773;DHT22;9515;50.810;4.418;2023-03-01T17:13:08;9.70;99.10
18773;DHT22;9515;50.810;4.418;2023-03-01T17:15:34;9.70;99.20
18773;DHT22;9515;50.810;4.418;2023-03-01T17:18:00;9.70;99.30
18773;DHT22;9515;50.810;4.418;2023-03-01T17:20:26;9.40;99.50
18773;DHT22;9515;50.810;4.418;2023-03-01T17:22:52;9.20;99.90
18773;DHT22;9515;50.810;4.418;2023-03-01T17:25:17;9.10;99.90
18773;DHT22;9515;50.810;4.418;2023-03-01T17:27:44;9.20;99.90
18773;DHT22;9515;50.810;4.418;2023-03-01T17:30:11;9.10;99.90
18773;DHT22;9515;50.810;4.418;2023-03-01T17:32:37;9.10;99.90
18773;DHT22;9515;50.810;4.418;2023-03-01T17:35:03;8.90;99.90
18773;DHT22;9515;50.810;4.418;2023-03-01T17:37:29;8.90;99.90
18773;DHT22;9515;50.810;4.418;2023-03-01T17:39:55;8.70;99.90
18773;DHT22;9515;50.810;4.418;2023-03-01T17:42:20;8.70;99.90
18773;DHT22;9515;50.810;4.418;2023-03-01T17:44:46;8.70;99.90
18773;DHT22;9515;50.810;4.418;2023-03-01T17:47:12;8.70;99.90
18773;DHT22;9515;50.810;4.418;2023-03-01T17:49:37;8.60;99.90
18773;DHT22;9515;50.810;4.418;2023-03-01T17:52:03;8.70;99.90
18773;DHT22;9515;50.810;4.418;2023-03-01T17:54:29;8.80;99.90
18773;DHT22;9515;50.810;4.418;2023-03-01T17:56:55;8.70;99.90